createdAt,value
2018-02-19T00:01:13.555Z,21.42
2018-02-19T00:03:41.001Z,20.85
2018-02-19T00:06:08.433Z,21.48
2018-02-19T00:08:35.860Z,19.37
2018-02-19T00:11:03.296Z,20.58
2018-02-19T00:13:30.834Z,21.35
2018-02-19T00:15:58.288Z,20.67
2018-02-19T00:18:25.739Z,22.50
2018-02-19T00:20:53.200Z,20.88
2018-02-19T00:23:20.633Z,19.35
2018-02-19T00:25:48.065Z,20.00
2018-02-19T00:28:15.481Z,22.83
2018-02-19T00:30:42.935Z,20.48
2018-02-19T00:33:10.416Z,19.30
2018-02-19T00:35:37.819Z,22.08
2018-02-19T00:38:05.396Z,21.52
2018-02-19T00:40:33.735Z,18.65
2018-02-19T00:43:01.214Z,19.40
2018-02-19T00:45:28.713Z,18.60
2018-02-19T00:47:56.144Z,21.08
2018-02-19T00:50:23.580Z,20.00
2018-02-19T00:52:51.009Z,20.45
2018-02-19T00:55:18.526Z,18.25
2018-02-19T00:57:46.276Z,20.50
2018-02-19T01:00:13.805Z,22.50
2018-02-19T01:02:41.484Z,20.65
2018-02-19T01:05:08.917Z,19.40
2018-02-19T01:07:36.406Z,19.10
2018-02-19T01:10:03.828Z,19.58
2018-02-19T01:12:31.260Z,20.67
2018-02-19T01:14:58.691Z,20.40
2018-02-19T01:17:26.140Z,18.60
2018-02-19T01:19:53.578Z,22.15
2018-02-19T01:22:21.144Z,18.48
2018-02-19T01:24:48.572Z,17.77
2018-02-19T01:27:16.055Z,19.42
2018-02-19T01:29:43.500Z,18.65
2018-02-19T01:32:10.929Z,18.48
2018-02-19T01:34:38.352Z,16.90
2018-02-19T01:37:05.899Z,16.30
2018-02-19T01:39:33.520Z,16.98
2018-02-19T01:42:01.104Z,16.35
2018-02-19T01:44:28.536Z,17.00
2018-02-19T01:46:55.965Z,16.70
2018-02-19T01:49:23.396Z,14.57
2018-02-19T01:51:51.753Z,16.05
2018-02-19T01:54:19.295Z,16.65
2018-02-19T01:56:46.736Z,19.00
2018-02-19T01:59:14.210Z,16.20
2018-02-19T02:01:41.640Z,17.25
2018-02-19T02:04:09.055Z,15.68
2018-02-19T02:06:36.567Z,15.35
2018-02-19T02:09:04.000Z,15.68
2018-02-19T02:11:31.424Z,15.45
2018-02-19T02:13:58.944Z,16.37
2018-02-19T02:16:26.399Z,14.95
2018-02-19T02:18:53.828Z,14.95
2018-02-19T02:21:21.315Z,16.92
2018-02-19T02:23:48.730Z,16.80
2018-02-19T02:26:16.160Z,16.15
2018-02-19T02:28:43.700Z,16.45
2018-02-19T02:31:11.445Z,17.20
2018-02-19T02:33:38.873Z,15.50
2018-02-19T02:36:06.301Z,16.85
2018-02-19T02:38:33.739Z,16.00
2018-02-19T02:41:01.280Z,16.27
2018-02-19T02:43:28.717Z,16.08
2018-02-19T02:45:56.210Z,15.80
2018-02-19T02:48:23.634Z,14.70
2018-02-19T02:50:51.301Z,16.65
2018-02-19T02:53:18.711Z,17.35
2018-02-19T02:55:46.901Z,15.80
2018-02-19T02:58:14.349Z,16.35
2018-02-19T03:00:41.852Z,16.23
2018-02-19T03:03:09.305Z,17.12
2018-02-19T03:05:36.738Z,16.40
2018-02-19T03:08:04.154Z,16.42
2018-02-19T03:10:31.591Z,17.85
2018-02-19T03:12:59.018Z,15.73
2018-02-19T03:15:26.588Z,16.35
2018-02-19T03:17:54.041Z,16.52
2018-02-19T03:20:21.471Z,16.73
2018-02-19T03:22:48.893Z,15.20
2018-02-19T03:25:16.409Z,15.00
2018-02-19T03:27:44.172Z,14.77
2018-02-19T03:30:11.629Z,15.85
2018-02-19T03:32:39.084Z,15.80
2018-02-19T03:35:06.535Z,14.60
2018-02-19T03:37:33.969Z,16.27
2018-02-19T03:40:01.447Z,15.43
2018-02-19T03:42:28.883Z,14.87
2018-02-19T03:44:56.357Z,15.05
2018-02-19T03:47:23.820Z,15.32
2018-02-19T03:49:51.250Z,15.35
2018-02-19T03:52:18.727Z,14.63
2018-02-19T03:54:46.187Z,15.55
2018-02-19T03:57:13.644Z,16.02
2018-02-19T03:59:41.100Z,16.73
2018-02-19T04:02:08.549Z,15.80
2018-02-19T04:04:35.966Z,17.75
2018-02-19T04:07:03.387Z,14.87
2018-02-19T04:09:30.927Z,15.18
2018-02-19T04:11:58.384Z,16.75
2018-02-19T04:14:26.032Z,15.30
2018-02-19T04:16:53.472Z,16.50
2018-02-19T04:19:20.933Z,14.75
2018-02-19T04:21:48.516Z,15.85
2018-02-19T04:24:15.959Z,15.80
2018-02-19T04:26:43.390Z,17.67
2018-02-19T04:29:10.877Z,15.40
2018-02-19T04:31:38.304Z,14.87
2018-02-19T04:34:05.743Z,13.55
2018-02-19T04:36:33.176Z,14.90
2018-02-19T04:39:00.624Z,14.00
2018-02-19T04:41:28.079Z,15.45
2018-02-19T04:43:55.509Z,13.48
2018-02-19T04:49:20.955Z,13.80
2018-02-19T04:51:48.412Z,14.25
2018-02-19T04:54:16.035Z,13.30
2018-02-19T04:56:43.533Z,16.42
2018-02-19T04:59:10.959Z,15.05
2018-02-19T05:01:38.403Z,14.40
2018-02-19T05:04:05.853Z,14.40
2018-02-19T05:06:33.298Z,16.37
2018-02-19T05:09:00.800Z,16.00
2018-02-19T05:11:28.273Z,15.80
2018-02-19T05:13:55.815Z,15.38
2018-02-19T05:16:23.281Z,14.73
2018-02-19T05:18:51.033Z,15.52
2018-02-19T05:21:18.487Z,15.57
2018-02-19T05:23:45.907Z,14.43
2018-02-19T05:26:13.416Z,16.27
2018-02-19T05:28:40.965Z,15.15
2018-02-19T05:31:08.510Z,16.05
2018-02-19T05:33:36.020Z,15.63
2018-02-19T05:36:03.457Z,18.10
2018-02-19T05:38:30.902Z,15.88
2018-02-19T05:40:58.351Z,16.02
2018-02-19T05:43:25.900Z,15.32
2018-02-19T05:45:53.360Z,15.20
2018-02-19T05:48:20.818Z,15.00
2018-02-19T05:50:48.237Z,13.75
2018-02-19T05:53:15.706Z,16.45
2018-02-19T05:55:43.128Z,16.25
2018-02-19T05:58:10.556Z,16.48
2018-02-19T06:00:38.101Z,16.45
2018-02-19T06:03:05.866Z,17.75
2018-02-19T06:05:33.296Z,16.30
2018-02-19T06:08:00.720Z,16.55
2018-02-19T06:10:28.147Z,16.30
2018-02-19T06:12:55.580Z,17.52
2018-02-19T06:15:23.144Z,17.65
2018-02-19T06:17:50.612Z,19.23
2018-02-19T06:20:18.052Z,16.92
2018-02-19T06:22:45.509Z,17.80
2018-02-19T06:25:12.946Z,18.12
2018-02-19T06:27:40.625Z,17.25
2018-02-19T06:30:08.188Z,16.92
2018-02-19T06:32:35.612Z,18.77
2018-02-19T06:35:03.100Z,20.40
2018-02-19T06:37:30.537Z,17.77
2018-02-19T06:39:57.980Z,18.10
2018-02-19T06:42:25.407Z,18.15
2018-02-19T06:44:52.931Z,18.15
2018-02-19T06:47:20.379Z,18.83
2018-02-19T06:49:47.806Z,18.42
2018-02-19T06:52:15.292Z,15.70
2018-02-19T06:54:43.000Z,16.92
2018-02-19T06:57:11.435Z,18.52
2018-02-19T06:59:38.856Z,15.10
2018-02-19T07:02:06.550Z,16.73
2018-02-19T07:04:33.988Z,16.33
2018-02-19T07:07:01.565Z,16.23
2018-02-19T07:09:29.016Z,17.50
2018-02-19T07:11:56.489Z,17.25
2018-02-19T07:14:23.935Z,16.65
2018-02-19T07:16:51.396Z,17.37
2018-02-19T07:19:19.031Z,16.50
2018-02-19T07:21:46.607Z,17.37
2018-02-19T07:24:14.076Z,17.30
2018-02-19T07:26:41.508Z,17.98
2018-02-19T07:29:08.987Z,17.10
2018-02-19T07:31:36.612Z,17.70
2018-02-19T07:34:04.112Z,17.40
2018-02-19T07:36:31.545Z,17.60
2018-02-19T07:38:58.985Z,19.42
2018-02-19T07:41:26.580Z,18.42
2018-02-19T07:43:54.000Z,16.20
2018-02-19T07:46:21.487Z,17.12
2018-02-19T07:48:48.935Z,19.75
2018-02-19T07:51:16.375Z,17.95
2018-02-19T07:53:43.788Z,20.00
2018-02-19T07:56:11.318Z,19.58
2018-02-19T07:58:38.736Z,17.50
2018-02-19T08:01:06.173Z,17.40
2018-02-19T08:03:33.597Z,19.73
2018-02-19T08:06:01.040Z,19.05
2018-02-19T08:08:28.506Z,23.35
2018-02-19T08:10:56.040Z,20.73
2018-02-19T08:13:23.484Z,21.50
2018-02-19T08:15:50.909Z,19.90
2018-02-19T08:18:18.430Z,23.05
2018-02-19T08:20:45.879Z,20.85
2018-02-19T08:23:13.303Z,22.58
2018-02-19T08:25:40.738Z,20.67
2018-02-19T08:28:08.166Z,18.12
2018-02-19T08:30:36.624Z,19.30
2018-02-19T08:33:04.086Z,19.60
2018-02-19T08:35:31.837Z,19.27
2018-02-19T08:37:59.284Z,19.15
2018-02-19T08:40:26.752Z,19.30
2018-02-19T08:42:54.175Z,19.55
2018-02-19T08:45:21.662Z,18.30
2018-02-19T08:47:49.301Z,19.30
2018-02-19T08:50:17.080Z,18.70
2018-02-19T08:52:44.506Z,18.48
2018-02-19T08:55:12.109Z,18.20
2018-02-19T08:57:39.865Z,19.27
2018-02-19T09:00:07.296Z,19.90
2018-02-19T09:02:34.712Z,17.70
2018-02-19T09:05:02.243Z,18.70
2018-02-19T09:07:29.703Z,20.00
2018-02-19T09:09:57.140Z,19.45
2018-02-19T09:12:24.565Z,19.90
2018-02-19T09:14:52.080Z,19.27
2018-02-19T09:17:19.517Z,18.87
2018-02-19T09:19:46.973Z,17.20
2018-02-19T09:22:14.403Z,16.60
2018-02-19T09:24:41.822Z,18.17
2018-02-19T09:27:09.334Z,18.98
2018-02-19T09:29:36.751Z,16.90
2018-02-19T09:32:04.252Z,15.90
2018-02-19T09:34:32.015Z,16.42
2018-02-19T09:36:59.471Z,18.40
2018-02-19T09:39:26.908Z,17.62
2018-02-19T09:41:54.394Z,16.98
2018-02-19T09:44:22.011Z,17.50
2018-02-19T09:46:49.803Z,21.67
2018-02-19T09:49:17.376Z,16.10
2018-02-19T09:51:44.812Z,17.98
2018-02-19T09:54:12.275Z,16.58
2018-02-19T09:56:39.715Z,17.12
2018-02-19T09:59:07.146Z,17.75
2018-02-19T10:01:34.644Z,16.83
2018-02-19T10:04:02.103Z,17.33
2018-02-19T10:06:29.561Z,17.42
2018-02-19T10:08:57.021Z,17.00
2018-02-19T10:11:24.651Z,17.65
2018-02-19T10:13:52.235Z,17.33
2018-02-19T10:16:19.687Z,18.77
2018-02-19T10:18:47.153Z,19.20
2018-02-19T10:21:14.783Z,17.58
2018-02-19T10:23:42.230Z,18.45
2018-02-19T10:26:09.697Z,18.20
2018-02-19T10:28:37.273Z,17.50
2018-02-19T10:31:04.704Z,19.02
2018-02-19T10:33:32.142Z,17.40
2018-02-19T10:35:59.654Z,18.70
2018-02-19T10:38:27.407Z,17.27
2018-02-19T10:40:54.831Z,17.50
2018-02-19T10:43:22.323Z,17.40
2018-02-19T10:45:49.748Z,17.90
2018-02-19T10:48:17.232Z,17.58
2018-02-19T10:50:44.644Z,15.73
2018-02-19T10:53:12.148Z,17.83
2018-02-19T10:55:39.575Z,16.27
2018-02-19T10:58:07.011Z,17.02
2018-02-19T11:00:40.136Z,15.77
2018-02-19T11:03:07.728Z,15.10
2018-02-19T11:05:35.279Z,16.60
2018-02-19T11:08:02.909Z,17.17
2018-02-19T11:10:30.361Z,16.95
2018-02-19T11:12:58.246Z,15.93
2018-02-19T11:15:26.581Z,15.55
2018-02-19T11:17:54.026Z,13.95
2018-02-19T11:20:21.447Z,12.70
2018-02-19T11:22:49.009Z,15.57
2018-02-19T11:25:16.639Z,13.98
2018-02-19T11:27:44.221Z,15.88
2018-02-19T11:30:11.672Z,15.55
2018-02-19T11:32:39.135Z,16.85
2018-02-19T11:35:06.576Z,14.77
2018-02-19T11:37:34.039Z,17.10
2018-02-19T11:40:01.473Z,14.35
2018-02-19T11:42:28.902Z,12.37
2018-02-19T11:44:56.438Z,13.43
2018-02-19T11:47:24.172Z,13.85
2018-02-19T11:49:51.628Z,13.60
2018-02-19T11:52:19.053Z,12.20
2018-02-19T11:54:46.475Z,11.45
2018-02-19T11:57:14.828Z,12.50
2018-02-19T11:59:42.828Z,13.15
2018-02-19T12:02:10.321Z,11.95
2018-02-19T12:04:37.908Z,14.43
2018-02-19T12:07:05.443Z,13.32
2018-02-19T12:09:33.127Z,11.80
2018-02-19T12:12:00.907Z,13.80
2018-02-19T12:14:28.517Z,14.18
2018-02-19T12:16:55.977Z,14.30
2018-02-19T12:19:23.473Z,12.52
2018-02-19T12:21:51.029Z,13.68
2018-02-19T12:24:18.656Z,12.48
2018-02-19T12:26:46.232Z,15.20
2018-02-19T12:29:13.680Z,13.30
2018-02-19T12:31:42.071Z,12.77
2018-02-19T12:34:09.499Z,12.27
2018-02-19T12:36:36.932Z,12.30
2018-02-19T12:39:04.955Z,14.35
2018-02-19T12:41:32.425Z,13.00
2018-02-19T12:43:59.881Z,13.50
2018-02-19T12:46:27.304Z,13.85
2018-02-19T12:48:54.770Z,13.13
2018-02-19T12:51:22.284Z,13.02
2018-02-19T12:53:49.704Z,11.40
2018-02-19T12:56:17.261Z,13.13
2018-02-19T12:58:44.688Z,12.63
2018-02-19T13:01:12.130Z,11.20
2018-02-19T13:03:39.612Z,13.15
2018-02-19T13:06:07.080Z,12.40
2018-02-19T13:08:34.715Z,11.85
2018-02-19T13:11:02.167Z,12.23
2018-02-19T13:13:29.612Z,12.80
2018-02-19T13:15:57.837Z,10.68
2018-02-19T13:18:25.271Z,11.90
2018-02-19T13:20:52.713Z,14.02
2018-02-19T13:23:20.192Z,12.23
2018-02-19T13:25:48.185Z,13.35
2018-02-19T13:28:15.708Z,13.45
2018-02-19T13:30:43.131Z,14.27
2018-02-19T13:33:10.556Z,12.88
2018-02-19T13:35:38.873Z,13.73
2018-02-19T13:38:06.457Z,12.80
2018-02-19T13:40:33.924Z,12.30
2018-02-19T13:43:01.388Z,13.82
2018-02-19T13:45:28.822Z,13.62
2018-02-19T13:47:56.241Z,11.88
2018-02-19T13:50:23.681Z,14.70
2018-02-19T13:52:51.113Z,13.73
2018-02-19T13:55:18.569Z,14.70
2018-02-19T13:57:46.123Z,11.85
2018-02-19T14:00:13.888Z,13.05
2018-02-19T14:02:41.343Z,13.77
2018-02-19T14:05:09.114Z,12.10
2018-02-19T14:07:36.547Z,11.60
2018-02-19T14:10:04.008Z,13.55
2018-02-19T14:12:31.427Z,13.15
2018-02-19T14:14:58.859Z,13.13
2018-02-19T14:17:26.296Z,13.38
2018-02-19T14:19:53.849Z,12.63
2018-02-19T14:22:21.296Z,13.32
2018-02-19T14:24:49.052Z,15.32
2018-02-19T14:27:16.489Z,14.30
2018-02-19T14:29:43.916Z,14.10
2018-02-19T14:32:11.355Z,14.27
2018-02-19T14:34:38.795Z,14.43
2018-02-19T14:37:06.340Z,13.98
2018-02-19T14:39:33.796Z,13.62
2018-02-19T14:42:01.556Z,13.73
2018-02-19T14:44:28.979Z,13.82
2018-02-19T14:46:56.415Z,15.43
2018-02-19T14:49:23.931Z,14.68
2018-02-19T14:51:51.379Z,13.52
2018-02-19T14:54:18.808Z,13.25
2018-02-19T14:56:46.247Z,16.60
2018-02-19T14:59:13.677Z,13.30
2018-02-19T15:01:41.203Z,13.80
2018-02-19T15:04:08.665Z,14.55
2018-02-19T15:06:36.436Z,13.98
2018-02-19T15:09:03.863Z,13.85
2018-02-19T15:11:31.360Z,14.05
2018-02-19T15:13:59.101Z,14.65
2018-02-19T15:16:26.732Z,15.80
2018-02-19T15:18:54.179Z,15.10
2018-02-19T15:21:22.368Z,13.65
2018-02-19T15:23:49.848Z,12.93
2018-02-19T15:26:17.536Z,14.85
2018-02-19T15:28:45.076Z,13.70
2018-02-19T15:31:12.535Z,13.27
2018-02-19T15:33:39.975Z,12.27
2018-02-19T15:36:07.432Z,13.57
2018-02-19T15:38:34.856Z,13.45
2018-02-19T15:41:02.363Z,13.55
2018-02-19T15:43:30.109Z,13.70
2018-02-19T15:45:57.544Z,14.57
2018-02-19T15:48:24.972Z,13.73
2018-02-19T15:50:52.399Z,13.95
2018-02-19T15:53:19.936Z,13.93
2018-02-19T15:55:47.359Z,12.95
2018-02-19T15:58:14.792Z,13.88
2018-02-19T16:00:42.308Z,14.73
2018-02-19T16:03:09.789Z,14.13
2018-02-19T16:05:37.406Z,14.00
2018-02-19T16:08:04.909Z,14.95
2018-02-19T16:10:32.351Z,15.48
2018-02-19T16:12:59.820Z,15.88
2018-02-19T16:15:27.247Z,15.75
2018-02-19T16:17:54.808Z,13.90
2018-02-19T16:20:22.241Z,13.45
2018-02-19T16:22:49.692Z,13.73
2018-02-19T16:25:17.136Z,14.35
2018-02-19T16:27:44.564Z,15.65
2018-02-19T16:30:12.101Z,17.30
2018-02-19T16:32:39.551Z,17.30
2018-02-19T16:35:07.201Z,13.57
2018-02-19T16:37:34.691Z,13.50
2018-02-19T16:40:02.128Z,12.95
2018-02-19T16:42:29.596Z,14.95
2018-02-19T16:44:57.127Z,15.23
2018-02-19T16:47:24.555Z,14.25
2018-02-19T16:49:52.005Z,12.85
2018-02-19T16:52:19.500Z,12.52
2018-02-19T16:54:46.931Z,13.35
2018-02-19T16:57:14.355Z,14.55
2018-02-19T16:59:41.808Z,14.60
2018-02-19T17:02:09.333Z,13.62
2018-02-19T17:04:36.763Z,14.90
2018-02-19T17:07:04.184Z,14.48
2018-02-19T17:09:31.611Z,15.07
2018-02-19T17:11:59.078Z,14.90
2018-02-19T17:14:26.515Z,16.12
2018-02-19T17:16:54.080Z,16.80
2018-02-19T17:19:21.819Z,14.77
2018-02-19T17:21:49.257Z,16.15
2018-02-19T17:24:16.684Z,14.48
2018-02-19T17:26:44.115Z,16.55
2018-02-19T17:29:11.656Z,15.52
2018-02-19T17:31:39.092Z,16.17
2018-02-19T17:34:06.520Z,16.27
2018-02-19T17:36:33.953Z,18.90
2018-02-19T17:39:01.404Z,17.23
2018-02-19T17:41:28.941Z,20.33
2018-02-19T17:43:56.531Z,19.67
2018-02-19T17:46:24.026Z,17.95
2018-02-19T17:48:51.528Z,15.23
2018-02-19T17:51:19.264Z,15.80
2018-02-19T17:53:46.700Z,15.18
2018-02-19T17:56:14.122Z,15.80
2018-02-19T17:58:41.553Z,17.23
2018-02-19T18:01:08.975Z,16.55
2018-02-19T18:03:36.556Z,16.65
2018-02-19T18:06:03.988Z,17.77
2018-02-19T18:08:31.484Z,16.80
2018-02-19T18:10:59.026Z,16.20
2018-02-19T18:13:26.488Z,16.52
2018-02-19T18:15:55.602Z,15.05
2018-02-19T18:18:23.129Z,16.40
2018-02-19T18:20:51.553Z,16.52
2018-02-19T18:23:19.001Z,19.45
2018-02-19T18:25:46.427Z,18.30
2018-02-19T18:28:13.860Z,16.92
2018-02-19T18:30:41.317Z,17.70
2018-02-19T18:33:08.813Z,17.25
2018-02-19T18:35:36.243Z,18.12
2018-02-19T18:38:03.705Z,17.37
2018-02-19T18:40:31.268Z,16.85
2018-02-19T18:42:58.844Z,19.12
2018-02-19T18:45:26.276Z,18.17
2018-02-19T18:47:53.949Z,17.77
2018-02-19T18:50:21.376Z,22.23
2018-02-19T18:52:49.701Z,21.27
2018-02-19T18:55:17.152Z,22.02
2018-02-19T18:57:44.595Z,20.00
2018-02-19T19:00:12.054Z,20.77
2018-02-19T19:02:39.581Z,20.88
2018-02-19T19:05:07.050Z,19.77
2018-02-19T19:07:46.267Z,18.95
2018-02-19T19:10:25.441Z,19.62
2018-02-19T19:12:52.929Z,19.20
2018-02-19T19:15:20.597Z,19.30
2018-02-19T19:17:48.008Z,19.05
2018-02-19T19:20:15.450Z,21.55
2018-02-19T19:22:42.929Z,17.95
2018-02-19T19:25:10.588Z,18.90
2018-02-19T19:27:38.034Z,19.00
2018-02-19T19:30:05.586Z,19.12
2018-02-19T19:32:33.235Z,18.08
2018-02-19T19:35:00.694Z,20.08
2018-02-19T19:37:28.163Z,18.87
2018-02-19T19:39:55.633Z,18.08
2018-02-19T19:42:23.069Z,18.30
2018-02-19T19:44:50.513Z,16.92
2018-02-19T19:47:17.921Z,19.10
2018-02-19T19:49:45.370Z,18.87
2018-02-19T19:52:12.996Z,18.80
2018-02-19T19:54:40.425Z,20.77
2018-02-19T19:57:07.925Z,20.10
2018-02-19T19:59:35.363Z,19.30
2018-02-19T20:02:02.802Z,20.27
2018-02-19T20:04:30.271Z,20.70
2018-02-19T20:06:57.694Z,19.40
2018-02-19T20:09:25.132Z,20.23
2018-02-19T20:11:52.575Z,20.67
2018-02-19T20:14:20.017Z,21.55
2018-02-19T20:16:47.560Z,21.90
2018-02-19T20:19:15.017Z,20.37
2018-02-19T20:21:42.472Z,19.60
2018-02-19T20:24:09.922Z,19.70
2018-02-19T20:26:37.394Z,20.60
2018-02-19T20:29:05.721Z,23.85
2018-02-19T20:31:33.141Z,24.02
2018-02-19T20:34:00.587Z,23.30
2018-02-19T20:36:28.111Z,21.08
2018-02-19T20:38:55.608Z,20.20
2018-02-19T20:41:23.046Z,23.42
2018-02-19T20:43:50.489Z,20.00
2018-02-19T20:46:17.942Z,18.08
2018-02-19T20:48:45.400Z,22.13
2018-02-19T20:51:12.811Z,18.90
2018-02-19T20:53:40.239Z,20.55
2018-02-19T20:56:07.771Z,20.00
2018-02-19T20:58:35.214Z,18.62
2018-02-19T21:01:02.693Z,17.40
2018-02-19T21:03:30.330Z,18.80
2018-02-19T21:05:57.772Z,19.45
2018-02-19T21:08:25.369Z,19.10
2018-02-19T21:10:52.783Z,19.65
2018-02-19T21:13:20.279Z,19.65
2018-02-19T21:15:47.701Z,20.00
2018-02-19T21:18:15.132Z,18.65
2018-02-19T21:20:43.331Z,17.62
2018-02-19T21:23:11.032Z,18.37
2018-02-19T21:25:38.479Z,19.60
2018-02-19T21:28:05.944Z,19.25
2018-02-19T21:30:33.391Z,19.45
2018-02-19T21:33:00.828Z,18.48
2018-02-19T21:35:28.316Z,20.42
2018-02-19T21:37:55.761Z,19.77
2018-02-19T21:40:23.200Z,18.35
2018-02-19T21:42:50.684Z,19.42
2018-02-19T21:45:18.302Z,19.33
2018-02-19T21:47:46.517Z,21.30
2018-02-19T21:50:13.987Z,19.95
2018-02-19T21:52:41.629Z,19.40
2018-02-19T21:55:09.057Z,18.23
2018-02-19T21:57:36.560Z,19.83
2018-02-19T22:00:04.101Z,19.85
2018-02-19T22:02:31.544Z,21.95
2018-02-19T22:04:59.003Z,19.02
2018-02-19T22:07:26.424Z,21.75
2018-02-19T22:09:53.855Z,21.20
2018-02-19T22:12:21.369Z,20.33
2018-02-19T22:14:48.822Z,22.80
2018-02-19T22:17:16.297Z,20.25
2018-02-19T22:19:43.737Z,22.02
2018-02-19T22:22:11.205Z,22.25
2018-02-19T22:24:38.627Z,21.98
2018-02-19T22:27:06.052Z,21.83
2018-02-19T22:29:33.572Z,24.65
2018-02-19T22:32:01.332Z,21.42
2018-02-19T22:34:28.759Z,24.45
2018-02-19T22:36:56.180Z,23.15
2018-02-19T22:39:24.376Z,24.23
2018-02-19T22:41:51.974Z,24.77
2018-02-19T22:44:19.385Z,23.62
2018-02-19T22:46:47.580Z,22.45
2018-02-19T22:49:15.014Z,20.85
2018-02-19T22:51:42.441Z,21.00
2018-02-19T22:54:09.898Z,21.95
2018-02-19T22:56:37.459Z,20.02
2018-02-19T22:59:05.077Z,21.48
2018-02-19T23:01:32.650Z,19.95
2018-02-19T23:04:00.104Z,19.80
2018-02-19T23:06:27.556Z,19.65
2018-02-19T23:08:54.990Z,19.30
2018-02-19T23:11:22.469Z,20.77
2018-02-19T23:13:49.931Z,21.90
2018-02-19T23:16:17.344Z,20.48
2018-02-19T23:18:44.771Z,20.33
2018-02-19T23:21:12.207Z,20.65
2018-02-19T23:23:39.639Z,19.50
2018-02-19T23:26:07.110Z,22.10
2018-02-19T23:28:34.574Z,21.45
2018-02-19T23:31:02.032Z,18.92
2018-02-19T23:33:29.478Z,21.48
2018-02-19T23:35:56.974Z,21.87
2018-02-19T23:38:24.411Z,21.40
2018-02-19T23:40:51.951Z,22.02
2018-02-19T23:43:19.400Z,22.37
2018-02-19T23:45:46.863Z,21.75
2018-02-19T23:48:14.315Z,21.45
2018-02-19T23:50:41.778Z,22.75
2018-02-19T23:53:09.415Z,20.52
2018-02-19T23:55:36.895Z,19.65
2018-02-19T23:58:04.321Z,21.10
